UAE357 WIII-OMDB
Flight info
| Callsign | UAE357 |
|---|---|
| Flight time | N/A |
| Altitude | 38000 |
| Route | RIMTI1F RIMTI M766 OBMAT L896 MMV P574 PAROK Q899 ITURA M762 MIVEK P574 IMPED IMPED3C |
| Aircraft | B77W/H-SDE1E2E3FGHIJ2J3J4J5M1RWXYZ/LB1D1 |
Departure
| Time | 2026-05-06 02:18 |
|---|---|
| Airport | Soekarno-Hatta International Airport (WIII) |
Arrival
| Time | N/A |
|---|---|
| Airport | Dubai International Airport (OMDB) |
| Time | Latitude | Longitude | Altitude | Speed | Heading |
|---|---|---|---|---|---|
| 2026-05-06 01:51 | -6.11844 | 106.66229 | 53 ft | 0 kts | 158° |
| 2026-05-06 02:08 | -6.11836 | 106.66225 | 53 ft | 2 kts | 158° |
| 2026-05-06 02:08 | -6.11821 | 106.66220 | 53 ft | 2 kts | 158° |
| 2026-05-06 02:08 | -6.11808 | 106.66215 | 53 ft | 2 kts | 158° |
| 2026-05-06 02:08 | -6.11795 | 106.66209 | 53 ft | 0 kts | 158° |
| 2026-05-06 02:09 | -6.11785 | 106.66206 | 53 ft | 2 kts | 149° |
| 2026-05-06 02:09 | -6.11774 | 106.66196 | 53 ft | 2 kts | 126° |
| 2026-05-06 02:09 | -6.11767 | 106.66183 | 53 ft | 2 kts | 107° |
| 2026-05-06 02:09 | -6.11765 | 106.66168 | 53 ft | 2 kts | 88° |
| 2026-05-06 02:10 | -6.11767 | 106.66155 | 53 ft | 1 kts | 70° |
| 2026-05-06 02:10 | -6.11769 | 106.66150 | 53 ft | 0 kts | 68° |
| 2026-05-06 02:12 | -6.11768 | 106.66152 | 53 ft | 1 kts | 68° |
| 2026-05-06 02:12 | -6.11759 | 106.66174 | 53 ft | 5 kts | 69° |
| 2026-05-06 02:12 | -6.11740 | 106.66223 | 53 ft | 9 kts | 69° |
| 2026-05-06 02:12 | -6.11711 | 106.66296 | 53 ft | 12 kts | 68° |
| 2026-05-06 02:13 | -6.11668 | 106.66379 | 53 ft | 12 kts | 40° |
| 2026-05-06 02:13 | -6.11589 | 106.66383 | 53 ft | 11 kts | 344° |
| 2026-05-06 02:13 | -6.11520 | 106.66358 | 53 ft | 10 kts | 339° |
| 2026-05-06 02:13 | -6.11458 | 106.66334 | 53 ft | 9 kts | 338° |
| 2026-05-06 02:14 | -6.11400 | 106.66310 | 53 ft | 8 kts | 338° |
| 2026-05-06 02:14 | -6.11345 | 106.66303 | 53 ft | 7 kts | 28° |
| 2026-05-06 02:14 | -6.11315 | 106.66348 | 53 ft | 8 kts | 67° |
| 2026-05-06 02:14 | -6.11291 | 106.66406 | 53 ft | 9 kts | 68° |
| 2026-05-06 02:15 | -6.11263 | 106.66477 | 53 ft | 12 kts | 68° |
| 2026-05-06 02:15 | -6.11226 | 106.66570 | 53 ft | 15 kts | 68° |
| 2026-05-06 02:15 | -6.11182 | 106.66679 | 53 ft | 18 kts | 68° |
| 2026-05-06 02:15 | -6.11134 | 106.66801 | 53 ft | 17 kts | 68° |
| 2026-05-06 02:16 | -6.11090 | 106.66910 | 53 ft | 15 kts | 64° |
| 2026-05-06 02:16 | -6.11015 | 106.66966 | 53 ft | 13 kts | 0° |
| 2026-05-06 02:16 | -6.10947 | 106.66917 | 53 ft | 11 kts | 300° |
| 2026-05-06 02:16 | -6.10930 | 106.66844 | 53 ft | 10 kts | 268° |
| 2026-05-06 02:17 | -6.10945 | 106.66781 | 53 ft | 8 kts | 248° |
| 2026-05-06 02:17 | -6.10981 | 106.66693 | 53 ft | 27 kts | 248° |
| 2026-05-06 02:17 | -6.11151 | 106.66267 | 53 ft | 103 kts | 248° |
| 2026-05-06 02:17 | -6.11513 | 106.65359 | 54 ft | 172 kts | 249° |
| 2026-05-06 02:18 | -6.11960 | 106.64148 | 581 ft | 187 kts | 249° |
| 2026-05-06 02:18 | -6.12389 | 106.62957 | 1285 ft | 189 kts | 255° |
| 2026-05-06 02:18 | -6.12426 | 106.61589 | 1465 ft | 204 kts | 283° |
| 2026-05-06 02:18 | -6.11994 | 106.60181 | 1649 ft | 222 kts | 290° |
| 2026-05-06 02:19 | -6.11466 | 106.58638 | 1869 ft | 239 kts | 290° |
| 2026-05-06 02:19 | -6.10909 | 106.57014 | 2097 ft | 257 kts | 290° |
| 2026-05-06 02:19 | -6.10311 | 106.55273 | 2318 ft | 272 kts | 290° |
| 2026-05-06 02:19 | -6.09685 | 106.53445 | 3106 ft | 276 kts | 290° |
| 2026-05-06 02:20 | -6.08427 | 106.49814 | 4720 ft | 283 kts | 295° |
| 2026-05-06 02:20 | -6.07310 | 106.48204 | 5430 ft | 284 kts | 321° |
| 2026-05-06 02:20 | -6.05724 | 106.47027 | 6208 ft | 284 kts | 329° |
| 2026-05-06 02:21 | -6.04049 | 106.45969 | 6989 ft | 286 kts | 330° |
| 2026-05-06 02:21 | -6.02347 | 106.44913 | 7694 ft | 291 kts | 330° |
| 2026-05-06 02:21 | -6.00611 | 106.43831 | 8401 ft | 295 kts | 330° |
| 2026-05-06 02:21 | -5.98866 | 106.42739 | 9124 ft | 298 kts | 329° |
| 2026-05-06 02:22 | -5.97112 | 106.41640 | 9756 ft | 303 kts | 329° |
| 2026-05-06 02:22 | -5.95290 | 106.40500 | 9952 ft | 305 kts | 329° |
| 2026-05-06 02:22 | -5.93499 | 106.39378 | 9971 ft | 304 kts | 329° |
| 2026-05-06 02:22 | -5.91687 | 106.38243 | 9985 ft | 315 kts | 329° |
| 2026-05-06 02:23 | -5.89712 | 106.37009 | 9985 ft | 347 kts | 329° |
| 2026-05-06 02:23 | -5.87569 | 106.35669 | 9983 ft | 376 kts | 329° |
| 2026-05-06 02:23 | -5.85320 | 106.34261 | 9974 ft | 387 kts | 329° |
| 2026-05-06 02:23 | -5.83024 | 106.32822 | 9969 ft | 388 kts | 329° |
| 2026-05-06 02:24 | -5.80713 | 106.31374 | 9971 ft | 388 kts | 329° |
| 2026-05-06 02:24 | -5.78441 | 106.29951 | 9973 ft | 388 kts | 329° |
| 2026-05-06 02:24 | -5.76163 | 106.28443 | 9974 ft | 388 kts | 323° |
| 2026-05-06 02:24 | -5.74208 | 106.26608 | 9974 ft | 389 kts | 312° |
| 2026-05-06 02:25 | -5.72599 | 106.24328 | 10270 ft | 404 kts | 300° |
| 2026-05-06 02:25 | -5.71329 | 106.21858 | 11267 ft | 400 kts | 297° |
| 2026-05-06 02:25 | -5.70094 | 106.19363 | 12178 ft | 398 kts | 297° |
| 2026-05-06 02:25 | -5.68862 | 106.16867 | 12821 ft | 405 kts | 297° |
| 2026-05-06 02:26 | -5.67612 | 106.14329 | 13468 ft | 410 kts | 297° |
| 2026-05-06 02:26 | -5.66357 | 106.11777 | 14157 ft | 413 kts | 297° |
| 2026-05-06 02:26 | -5.65075 | 106.09172 | 14834 ft | 416 kts | 297° |
| 2026-05-06 02:26 | -5.63785 | 106.06546 | 15484 ft | 420 kts | 297° |
| 2026-05-06 02:27 | -5.62492 | 106.03917 | 16117 ft | 424 kts | 297° |
| 2026-05-06 02:27 | -5.61189 | 106.01265 | 16712 ft | 428 kts | 297° |
| 2026-05-06 02:27 | -5.59870 | 105.98581 | 17297 ft | 432 kts | 298° |
| 2026-05-06 02:27 | -5.58537 | 105.95868 | 17886 ft | 435 kts | 297° |
| 2026-05-06 02:28 | -5.57201 | 105.93150 | 18462 ft | 439 kts | 297° |
| 2026-05-06 02:28 | -5.55849 | 105.90399 | 19007 ft | 442 kts | 298° |
| 2026-05-06 02:28 | -5.54476 | 105.87607 | 19540 ft | 446 kts | 297° |
| 2026-05-06 02:28 | -5.53108 | 105.84824 | 20050 ft | 450 kts | 297° |
| 2026-05-06 02:29 | -5.51724 | 105.82008 | 20551 ft | 454 kts | 297° |
| 2026-05-06 02:29 | -5.50313 | 105.79139 | 20930 ft | 459 kts | 297° |
| 2026-05-06 02:29 | -5.48903 | 105.76272 | 20985 ft | 460 kts | 297° |
| 2026-05-06 02:29 | -5.47499 | 105.73416 | 20992 ft | 459 kts | 297° |
| 2026-05-06 02:30 | -5.46078 | 105.70526 | 20990 ft | 458 kts | 297° |
| 2026-05-06 02:30 | -5.44661 | 105.67646 | 20986 ft | 459 kts | 297° |
| 2026-05-06 02:30 | -5.43251 | 105.64782 | 20981 ft | 459 kts | 298° |
| 2026-05-06 02:30 | -5.41947 | 105.61874 | 20986 ft | 462 kts | 292° |
| 2026-05-06 02:31 | -5.40799 | 105.58842 | 21337 ft | 469 kts | 292° |
| 2026-05-06 02:31 | -5.39656 | 105.55779 | 22005 ft | 467 kts | 292° |
| 2026-05-06 02:31 | -5.38518 | 105.52734 | 22573 ft | 467 kts | 291° |
| 2026-05-06 02:31 | -5.37387 | 105.49709 | 22994 ft | 472 kts | 291° |
| 2026-05-06 02:32 | -5.36226 | 105.46606 | 23409 ft | 476 kts | 291° |
| 2026-05-06 02:32 | -5.35054 | 105.43475 | 23907 ft | 478 kts | 291° |
| 2026-05-06 02:32 | -5.33884 | 105.40352 | 24396 ft | 480 kts | 291° |
| 2026-05-06 02:32 | -5.32714 | 105.37231 | 24847 ft | 483 kts | 291° |
| 2026-05-06 02:33 | -5.31521 | 105.34048 | 25286 ft | 486 kts | 291° |
| 2026-05-06 02:33 | -5.30744 | 105.31976 | 25572 ft | 488 kts | 291° |
| 2026-05-06 02:33 | -5.27933 | 105.24480 | 26568 ft | 495 kts | 291° |
| 2026-05-06 02:34 | -5.26728 | 105.21266 | 27000 ft | 497 kts | 291° |
| 2026-05-06 02:34 | -5.25395 | 105.18067 | 27380 ft | 500 kts | 296° |
| 2026-05-06 02:34 | -5.23885 | 105.14899 | 27785 ft | 502 kts | 296° |
| 2026-05-06 02:34 | -5.22363 | 105.11742 | 28169 ft | 506 kts | 296° |
| 2026-05-06 02:35 | -5.20828 | 105.08556 | 28573 ft | 508 kts | 296° |
| 2026-05-06 02:35 | -5.19301 | 105.05385 | 28960 ft | 511 kts | 296° |
| 2026-05-06 02:35 | -5.17748 | 105.02158 | 29375 ft | 514 kts | 296° |
| 2026-05-06 02:35 | -5.16187 | 104.98915 | 29943 ft | 512 kts | 296° |
| 2026-05-06 02:36 | -5.14651 | 104.95723 | 30642 ft | 508 kts | 296° |
| 2026-05-06 02:36 | -5.13126 | 104.92553 | 31338 ft | 504 kts | 296° |
| 2026-05-06 02:36 | -5.11624 | 104.89433 | 31941 ft | 501 kts | 296° |
| 2026-05-06 02:36 | -5.10119 | 104.86305 | 32480 ft | 499 kts | 296° |
| 2026-05-06 02:37 | -5.08614 | 104.83178 | 33001 ft | 499 kts | 296° |
| 2026-05-06 02:37 | -5.07105 | 104.80042 | 33523 ft | 497 kts | 296° |
| 2026-05-06 02:37 | -5.05597 | 104.76910 | 33973 ft | 498 kts | 296° |
| 2026-05-06 02:38 | -5.02596 | 104.70678 | 34003 ft | 496 kts | 296° |
| 2026-05-06 02:38 | -4.99580 | 104.64415 | 34039 ft | 496 kts | 296° |
| 2026-05-06 02:39 | -4.96562 | 104.58149 | 34057 ft | 495 kts | 296° |
| 2026-05-06 02:39 | -4.93557 | 104.51911 | 34068 ft | 494 kts | 296° |
| 2026-05-06 02:40 | -4.90547 | 104.45677 | 34077 ft | 495 kts | 296° |
| 2026-05-06 02:40 | -4.87498 | 104.39462 | 34070 ft | 496 kts | 296° |
| 2026-05-06 02:41 | -4.84444 | 104.33239 | 34070 ft | 496 kts | 296° |
| 2026-05-06 02:41 | -4.81394 | 104.27026 | 34070 ft | 496 kts | 296° |
| 2026-05-06 02:42 | -4.78338 | 104.20798 | 34067 ft | 496 kts | 296° |
| 2026-05-06 02:42 | -4.75278 | 104.14563 | 34062 ft | 496 kts | 296° |
| 2026-05-06 02:43 | -4.72243 | 104.08380 | 34055 ft | 495 kts | 296° |
| 2026-05-06 02:43 | -4.69203 | 104.02187 | 34062 ft | 495 kts | 296° |
| 2026-05-06 02:44 | -4.66145 | 103.95961 | 34065 ft | 495 kts | 296° |
| 2026-05-06 02:44 | -4.63099 | 103.89761 | 34074 ft | 496 kts | 296° |
| 2026-05-06 02:45 | -4.60046 | 103.83548 | 34076 ft | 496 kts | 296° |
| 2026-05-06 02:45 | -4.57005 | 103.77361 | 34085 ft | 496 kts | 296° |
| 2026-05-06 02:46 | -4.53951 | 103.71147 | 34090 ft | 495 kts | 296° |
| 2026-05-06 02:46 | -4.50899 | 103.64941 | 34082 ft | 496 kts | 296° |
| 2026-05-06 02:47 | -4.47857 | 103.58757 | 34087 ft | 496 kts | 296° |
| 2026-05-06 02:47 | -4.44816 | 103.52576 | 34100 ft | 497 kts | 296° |
| 2026-05-06 02:48 | -4.41757 | 103.46360 | 34116 ft | 496 kts | 296° |
| 2026-05-06 02:48 | -4.38697 | 103.40144 | 34138 ft | 497 kts | 296° |
| 2026-05-06 02:49 | -4.35637 | 103.33930 | 34173 ft | 496 kts | 296° |
| 2026-05-06 02:49 | -4.32584 | 103.27731 | 34220 ft | 495 kts | 296° |
| 2026-05-06 02:50 | -4.29532 | 103.21536 | 34253 ft | 496 kts | 296° |
| 2026-05-06 02:50 | -4.26465 | 103.15311 | 34224 ft | 496 kts | 296° |
| 2026-05-06 02:51 | -4.23407 | 103.09106 | 34165 ft | 498 kts | 296° |
| 2026-05-06 02:51 | -4.20358 | 103.02921 | 34118 ft | 497 kts | 296° |
| 2026-05-06 02:52 | -4.17292 | 102.96703 | 34101 ft | 497 kts | 296° |
| 2026-05-06 02:52 | -4.14235 | 102.90505 | 34096 ft | 496 kts | 296° |
| 2026-05-06 02:53 | -4.11182 | 102.84317 | 34091 ft | 497 kts | 296° |
| 2026-05-06 02:53 | -4.08124 | 102.78120 | 34092 ft | 498 kts | 296° |
| 2026-05-06 02:54 | -4.05057 | 102.71905 | 34075 ft | 497 kts | 296° |
| 2026-05-06 02:54 | -4.01997 | 102.65707 | 34058 ft | 498 kts | 296° |
| 2026-05-06 02:55 | -3.98925 | 102.59486 | 34053 ft | 498 kts | 296° |
| 2026-05-06 02:55 | -3.95869 | 102.53297 | 34022 ft | 496 kts | 296° |
| 2026-05-06 02:56 | -3.92816 | 102.47118 | 34013 ft | 498 kts | 296° |
| 2026-05-06 02:56 | -3.89745 | 102.40902 | 34011 ft | 496 kts | 296° |
| 2026-05-06 02:57 | -3.86687 | 102.34714 | 33997 ft | 496 kts | 296° |
| 2026-05-06 02:57 | -3.83627 | 102.28539 | 33985 ft | 497 kts | 296° |
| 2026-05-06 02:58 | -3.80564 | 102.22360 | 33978 ft | 497 kts | 296° |
| 2026-05-06 02:58 | -3.77493 | 102.16167 | 33985 ft | 498 kts | 296° |
| 2026-05-06 02:59 | -3.74414 | 102.09959 | 33989 ft | 495 kts | 296° |
| 2026-05-06 02:59 | -3.71366 | 102.03816 | 33984 ft | 494 kts | 296° |
| 2026-05-06 03:00 | -3.68302 | 101.97640 | 33989 ft | 495 kts | 296° |
| 2026-05-06 03:00 | -3.65251 | 101.91492 | 33986 ft | 494 kts | 296° |
| 2026-05-06 03:01 | -3.62201 | 101.85349 | 33987 ft | 495 kts | 296° |
| 2026-05-06 03:01 | -3.59127 | 101.79157 | 33990 ft | 495 kts | 296° |
| 2026-05-06 03:02 | -3.56068 | 101.72997 | 33987 ft | 495 kts | 296° |
| 2026-05-06 03:02 | -3.53018 | 101.66856 | 33986 ft | 494 kts | 296° |
| 2026-05-06 03:03 | -3.49942 | 101.60664 | 33987 ft | 495 kts | 296° |
| 2026-05-06 03:03 | -3.46882 | 101.54507 | 33985 ft | 494 kts | 296° |
| 2026-05-06 03:04 | -3.43838 | 101.48380 | 33986 ft | 495 kts | 296° |
| 2026-05-06 03:04 | -3.40754 | 101.42177 | 33986 ft | 494 kts | 296° |
| 2026-05-06 03:05 | -3.37698 | 101.36028 | 33983 ft | 494 kts | 296° |
| 2026-05-06 03:05 | -3.34630 | 101.29858 | 33983 ft | 494 kts | 296° |
| 2026-05-06 03:06 | -3.31564 | 101.23694 | 33983 ft | 494 kts | 296° |
| 2026-05-06 03:06 | -3.28487 | 101.17509 | 33980 ft | 493 kts | 296° |
| 2026-05-06 03:07 | -3.25432 | 101.11369 | 33977 ft | 494 kts | 296° |
| 2026-05-06 03:07 | -3.22369 | 101.05212 | 33979 ft | 493 kts | 296° |
| 2026-05-06 03:08 | -3.19311 | 100.99070 | 33976 ft | 494 kts | 296° |
| 2026-05-06 03:08 | -3.16258 | 100.92937 | 33975 ft | 494 kts | 296° |
| 2026-05-06 03:09 | -3.13191 | 100.86777 | 33973 ft | 494 kts | 296° |
| 2026-05-06 03:09 | -3.10133 | 100.80637 | 33974 ft | 494 kts | 296° |
| 2026-05-06 03:10 | -3.07065 | 100.74476 | 33974 ft | 494 kts | 296° |
| 2026-05-06 03:10 | -3.04011 | 100.68346 | 33975 ft | 494 kts | 296° |
| 2026-05-06 03:11 | -3.00958 | 100.62219 | 33975 ft | 494 kts | 296° |
| 2026-05-06 03:11 | -2.97877 | 100.56036 | 33975 ft | 494 kts | 296° |
| 2026-05-06 03:12 | -2.94822 | 100.49905 | 33975 ft | 495 kts | 296° |
| 2026-05-06 03:12 | -2.91752 | 100.43748 | 33977 ft | 494 kts | 296° |
| 2026-05-06 03:13 | -2.88667 | 100.37560 | 33975 ft | 496 kts | 296° |
| 2026-05-06 03:13 | -2.85593 | 100.31396 | 33966 ft | 494 kts | 296° |
| 2026-05-06 03:14 | -2.82524 | 100.25241 | 33962 ft | 495 kts | 296° |
| 2026-05-06 03:14 | -2.79460 | 100.19100 | 33958 ft | 494 kts | 296° |
| 2026-05-06 03:15 | -2.76405 | 100.12976 | 33957 ft | 494 kts | 296° |
| 2026-05-06 03:15 | -2.73339 | 100.06830 | 33955 ft | 495 kts | 296° |
| 2026-05-06 03:16 | -2.70250 | 100.00640 | 33957 ft | 495 kts | 296° |
| 2026-05-06 03:16 | -2.67182 | 99.94494 | 33956 ft | 495 kts | 296° |
| 2026-05-06 03:17 | -2.64127 | 99.88374 | 33954 ft | 494 kts | 296° |
| 2026-05-06 03:17 | -2.61056 | 99.82223 | 33954 ft | 495 kts | 296° |
| 2026-05-06 03:18 | -2.57979 | 99.76062 | 33954 ft | 494 kts | 296° |
| 2026-05-06 03:18 | -2.54900 | 99.69896 | 33954 ft | 495 kts | 296° |
| 2026-05-06 03:19 | -2.51838 | 99.63766 | 33958 ft | 494 kts | 296° |
| 2026-05-06 03:19 | -2.48767 | 99.57619 | 33962 ft | 495 kts | 296° |
| 2026-05-06 03:20 | -2.44290 | 99.48312 | 33967 ft | 495 kts | 295° |
| 2026-05-06 03:20 | -2.41351 | 99.42065 | 33969 ft | 494 kts | 295° |
| 2026-05-06 03:21 | -2.38432 | 99.35873 | 33972 ft | 495 kts | 295° |
| 2026-05-06 03:21 | -2.35486 | 99.29632 | 33972 ft | 495 kts | 295° |
| 2026-05-06 03:22 | -2.32547 | 99.23408 | 33972 ft | 494 kts | 295° |
| 2026-05-06 03:22 | -2.29615 | 99.17201 | 33973 ft | 495 kts | 295° |
| 2026-05-06 03:23 | -2.26690 | 99.11014 | 33973 ft | 493 kts | 295° |
| 2026-05-06 03:23 | -2.23758 | 99.04811 | 33973 ft | 493 kts | 295° |
| 2026-05-06 03:24 | -2.20805 | 98.98565 | 33973 ft | 493 kts | 295° |
| 2026-05-06 03:24 | -2.17884 | 98.92387 | 33973 ft | 494 kts | 295° |
| 2026-05-06 03:25 | -2.14950 | 98.86183 | 33973 ft | 495 kts | 295° |
| 2026-05-06 03:25 | -2.12013 | 98.79975 | 33974 ft | 496 kts | 295° |
| 2026-05-06 03:26 | -2.09061 | 98.73734 | 33972 ft | 495 kts | 295° |
| 2026-05-06 03:26 | -2.06105 | 98.67487 | 33972 ft | 495 kts | 295° |
| 2026-05-06 03:27 | -2.03173 | 98.61289 | 33962 ft | 495 kts | 295° |
| 2026-05-06 03:27 | -2.00232 | 98.55074 | 33955 ft | 495 kts | 295° |
| 2026-05-06 03:28 | -1.97277 | 98.48830 | 33954 ft | 496 kts | 295° |
| 2026-05-06 03:28 | -1.94330 | 98.42606 | 33953 ft | 496 kts | 295° |
| 2026-05-06 03:29 | -1.91380 | 98.36373 | 33953 ft | 496 kts | 295° |
| 2026-05-06 03:29 | -1.88441 | 98.30167 | 33951 ft | 496 kts | 295° |
| 2026-05-06 03:30 | -1.85474 | 98.23900 | 33951 ft | 496 kts | 295° |
| 2026-05-06 03:30 | -1.82537 | 98.17698 | 33952 ft | 496 kts | 295° |
| 2026-05-06 03:31 | -1.79581 | 98.11456 | 33951 ft | 496 kts | 295° |
| 2026-05-06 03:31 | -1.76629 | 98.05222 | 33953 ft | 497 kts | 295° |
| 2026-05-06 03:32 | -1.73671 | 97.98978 | 33953 ft | 496 kts | 295° |
| 2026-05-06 03:32 | -1.70735 | 97.92780 | 33954 ft | 497 kts | 295° |
| 2026-05-06 03:33 | -1.67777 | 97.86538 | 33955 ft | 496 kts | 295° |
| 2026-05-06 03:33 | -1.64834 | 97.80327 | 33955 ft | 495 kts | 295° |
| 2026-05-06 03:34 | -1.61881 | 97.74094 | 33953 ft | 496 kts | 295° |
| 2026-05-06 03:34 | -1.58654 | 97.68050 | 33954 ft | 495 kts | 306° |
| 2026-05-06 03:35 | -1.54358 | 97.62637 | 33959 ft | 495 kts | 309° |
| 2026-05-06 03:35 | -1.50015 | 97.57319 | 33964 ft | 494 kts | 309° |
| 2026-05-06 03:36 | -1.45681 | 97.52010 | 33968 ft | 494 kts | 309° |
| 2026-05-06 03:36 | -1.41319 | 97.46667 | 33968 ft | 493 kts | 309° |
| 2026-05-06 03:37 | -1.36971 | 97.41341 | 33971 ft | 495 kts | 309° |
| 2026-05-06 03:37 | -1.32605 | 97.35993 | 33970 ft | 494 kts | 310° |
| 2026-05-06 03:38 | -1.28260 | 97.30670 | 33970 ft | 495 kts | 310° |
| 2026-05-06 03:38 | -1.23916 | 97.25348 | 33970 ft | 494 kts | 310° |
| 2026-05-06 03:39 | -1.19560 | 97.20013 | 33969 ft | 494 kts | 310° |
| 2026-05-06 03:39 | -1.15199 | 97.14671 | 33970 ft | 495 kts | 310° |
| 2026-05-06 03:40 | -1.10855 | 97.09351 | 33971 ft | 495 kts | 310° |
| 2026-05-06 03:40 | -1.06484 | 97.03998 | 33970 ft | 495 kts | 310° |
| 2026-05-06 03:41 | -1.02127 | 96.98662 | 33959 ft | 496 kts | 310° |
| 2026-05-06 03:41 | -0.97776 | 96.93333 | 33952 ft | 495 kts | 310° |
| 2026-05-06 03:42 | -0.93419 | 96.87999 | 33952 ft | 495 kts | 310° |
| 2026-05-06 03:42 | -0.89055 | 96.82655 | 33952 ft | 495 kts | 310° |
| 2026-05-06 03:43 | -0.84737 | 96.77367 | 33954 ft | 494 kts | 310° |
| 2026-05-06 03:43 | -0.80382 | 96.72036 | 33954 ft | 493 kts | 310° |
| 2026-05-06 03:44 | -0.76020 | 96.66695 | 33954 ft | 493 kts | 310° |
| 2026-05-06 03:44 | -0.71678 | 96.61380 | 33954 ft | 492 kts | 310° |
| 2026-05-06 03:45 | -0.67351 | 96.56082 | 33954 ft | 493 kts | 310° |
| 2026-05-06 03:45 | -0.63007 | 96.50764 | 33953 ft | 493 kts | 310° |
| 2026-05-06 03:46 | -0.58691 | 96.45481 | 33954 ft | 492 kts | 310° |
| 2026-05-06 03:46 | -0.54363 | 96.40182 | 33954 ft | 491 kts | 310° |
| 2026-05-06 03:47 | -0.50026 | 96.34873 | 33953 ft | 491 kts | 310° |
| 2026-05-06 03:47 | -0.45704 | 96.29584 | 33952 ft | 491 kts | 310° |
| 2026-05-06 03:48 | -0.41407 | 96.24324 | 33952 ft | 491 kts | 310° |
| 2026-05-06 03:48 | -0.37068 | 96.19012 | 33951 ft | 491 kts | 310° |
| 2026-05-06 03:49 | -0.32748 | 96.13725 | 33952 ft | 491 kts | 310° |
| 2026-05-06 03:49 | -0.28458 | 96.08473 | 33952 ft | 490 kts | 310° |
| 2026-05-06 03:50 | -0.24148 | 96.03198 | 33952 ft | 489 kts | 310° |
| 2026-05-06 03:50 | -0.19835 | 95.97920 | 33951 ft | 489 kts | 310° |
| 2026-05-06 03:51 | -0.15530 | 95.92651 | 33955 ft | 490 kts | 310° |
| 2026-05-06 03:51 | -0.11201 | 95.87352 | 33955 ft | 491 kts | 310° |
| 2026-05-06 03:52 | -0.06877 | 95.82060 | 33962 ft | 491 kts | 310° |
| 2026-05-06 03:52 | -0.02565 | 95.76781 | 33969 ft | 491 kts | 310° |
| 2026-05-06 03:53 | 0.01741 | 95.71513 | 33971 ft | 491 kts | 310° |
| 2026-05-06 03:53 | 0.06067 | 95.66217 | 33973 ft | 491 kts | 310° |
| 2026-05-06 03:54 | 0.10416 | 95.60895 | 33972 ft | 491 kts | 310° |
| 2026-05-06 03:54 | 0.14757 | 95.55582 | 33971 ft | 491 kts | 310° |
| 2026-05-06 03:55 | 0.19093 | 95.50274 | 33959 ft | 492 kts | 310° |
| 2026-05-06 03:55 | 0.23416 | 95.44982 | 33953 ft | 492 kts | 310° |
| 2026-05-06 03:56 | 0.27754 | 95.39672 | 33953 ft | 493 kts | 310° |
| 2026-05-06 03:56 | 0.32076 | 95.34383 | 33953 ft | 492 kts | 310° |
| 2026-05-06 03:57 | 0.36413 | 95.29075 | 33951 ft | 492 kts | 310° |
| 2026-05-06 03:57 | 0.40736 | 95.23783 | 33950 ft | 492 kts | 309° |
| 2026-05-06 03:58 | 0.45071 | 95.18476 | 33952 ft | 493 kts | 310° |
| 2026-05-06 03:58 | 0.49403 | 95.13174 | 33952 ft | 492 kts | 309° |
| 2026-05-06 03:59 | 0.53719 | 95.07890 | 33953 ft | 493 kts | 309° |
| 2026-05-06 03:59 | 0.58069 | 95.02566 | 33951 ft | 493 kts | 309° |
| 2026-05-06 04:00 | 0.62422 | 94.97237 | 33950 ft | 493 kts | 309° |
| 2026-05-06 04:00 | 0.66753 | 94.91935 | 33951 ft | 492 kts | 309° |
| 2026-05-06 04:01 | 0.71106 | 94.86606 | 33955 ft | 492 kts | 309° |
| 2026-05-06 04:01 | 0.75421 | 94.81323 | 33951 ft | 492 kts | 309° |
| 2026-05-06 04:02 | 0.79753 | 94.76020 | 33952 ft | 493 kts | 309° |
| 2026-05-06 04:02 | 0.84077 | 94.70725 | 33951 ft | 493 kts | 309° |
| 2026-05-06 04:03 | 0.88434 | 94.65390 | 33951 ft | 494 kts | 309° |
| 2026-05-06 04:03 | 0.92805 | 94.60038 | 33953 ft | 494 kts | 309° |
| 2026-05-06 04:04 | 0.97163 | 94.54703 | 33953 ft | 494 kts | 309° |
| 2026-05-06 04:04 | 1.01534 | 94.49352 | 33953 ft | 494 kts | 309° |
| 2026-05-06 04:05 | 1.05872 | 94.44040 | 33953 ft | 495 kts | 309° |
| 2026-05-06 04:05 | 1.10217 | 94.38720 | 33953 ft | 494 kts | 309° |
| 2026-05-06 04:06 | 1.14579 | 94.33380 | 33951 ft | 495 kts | 309° |
| 2026-05-06 04:06 | 1.18912 | 94.28073 | 33952 ft | 495 kts | 309° |
| 2026-05-06 04:07 | 1.23268 | 94.22740 | 33952 ft | 495 kts | 309° |
| 2026-05-06 04:07 | 1.27650 | 94.17373 | 33952 ft | 496 kts | 309° |
| 2026-05-06 04:08 | 1.31993 | 94.12054 | 33953 ft | 496 kts | 309° |
| 2026-05-06 04:08 | 1.36346 | 94.06723 | 33951 ft | 496 kts | 309° |
| 2026-05-06 04:09 | 1.40702 | 94.01388 | 33946 ft | 496 kts | 309° |
| 2026-05-06 04:09 | 1.45073 | 93.96034 | 33939 ft | 496 kts | 309° |
| 2026-05-06 04:10 | 1.49422 | 93.90706 | 33936 ft | 496 kts | 309° |
| 2026-05-06 04:10 | 1.53795 | 93.85349 | 33933 ft | 496 kts | 309° |
| 2026-05-06 04:11 | 1.58144 | 93.80020 | 33938 ft | 496 kts | 309° |
| 2026-05-06 04:11 | 1.62513 | 93.74667 | 33944 ft | 497 kts | 309° |
| 2026-05-06 04:12 | 1.66900 | 93.69292 | 33945 ft | 497 kts | 309° |
| 2026-05-06 04:12 | 1.71267 | 93.63940 | 33945 ft | 496 kts | 309° |
| 2026-05-06 04:13 | 1.75615 | 93.58611 | 33945 ft | 497 kts | 309° |
| 2026-05-06 04:13 | 1.80013 | 93.53220 | 33946 ft | 497 kts | 309° |
| 2026-05-06 04:14 | 1.84364 | 93.47887 | 33949 ft | 498 kts | 309° |
| 2026-05-06 04:14 | 1.88756 | 93.42503 | 33953 ft | 498 kts | 309° |
| 2026-05-06 04:15 | 1.93120 | 93.37153 | 33954 ft | 499 kts | 309° |
| 2026-05-06 04:15 | 1.97521 | 93.31757 | 33952 ft | 499 kts | 309° |
| 2026-05-06 04:16 | 2.01905 | 93.26382 | 33950 ft | 498 kts | 309° |
| 2026-05-06 04:16 | 2.06282 | 93.21014 | 33952 ft | 498 kts | 309° |
| 2026-05-06 04:17 | 2.10643 | 93.15665 | 33953 ft | 499 kts | 309° |
| 2026-05-06 04:17 | 2.15036 | 93.10276 | 33951 ft | 498 kts | 309° |
| 2026-05-06 04:18 | 2.19417 | 93.04903 | 33951 ft | 499 kts | 309° |
| 2026-05-06 04:18 | 2.23828 | 92.99492 | 33952 ft | 499 kts | 309° |
| 2026-05-06 04:19 | 2.28206 | 92.94120 | 33952 ft | 498 kts | 309° |
| 2026-05-06 04:19 | 2.32572 | 92.88762 | 33953 ft | 498 kts | 309° |
| 2026-05-06 04:20 | 2.36938 | 92.83405 | 33953 ft | 499 kts | 309° |
| 2026-05-06 04:20 | 2.41328 | 92.78017 | 33952 ft | 500 kts | 309° |
| 2026-05-06 04:21 | 2.45721 | 92.72624 | 33953 ft | 499 kts | 309° |
| 2026-05-06 04:21 | 2.50116 | 92.67228 | 33953 ft | 500 kts | 309° |
| 2026-05-06 04:22 | 2.54523 | 92.61818 | 33953 ft | 500 kts | 309° |
| 2026-05-06 04:23 | 2.61117 | 92.53721 | 33954 ft | 500 kts | 309° |
| 2026-05-06 04:23 | 2.65494 | 92.48344 | 33954 ft | 499 kts | 309° |
| 2026-05-06 04:24 | 2.69884 | 92.42953 | 33954 ft | 500 kts | 309° |
| 2026-05-06 04:24 | 2.74274 | 92.37560 | 33954 ft | 499 kts | 309° |
| 2026-05-06 04:25 | 2.78673 | 92.32156 | 33952 ft | 500 kts | 309° |
| 2026-05-06 04:25 | 2.83078 | 92.26743 | 33952 ft | 500 kts | 309° |
| 2026-05-06 04:26 | 2.87501 | 92.21308 | 33952 ft | 500 kts | 309° |
| 2026-05-06 04:26 | 2.91881 | 92.15923 | 33952 ft | 500 kts | 309° |
| 2026-05-06 04:27 | 2.96293 | 92.10500 | 33952 ft | 502 kts | 309° |
| 2026-05-06 04:27 | 3.00687 | 92.05098 | 33953 ft | 501 kts | 309° |
| 2026-05-06 04:28 | 3.05061 | 91.99721 | 33945 ft | 502 kts | 309° |
| 2026-05-06 04:28 | 3.09576 | 91.94392 | 33934 ft | 501 kts | 310° |
| 2026-05-06 04:29 | 3.14131 | 91.89062 | 33931 ft | 501 kts | 310° |
| 2026-05-06 04:29 | 3.18651 | 91.83765 | 33931 ft | 503 kts | 310° |
| 2026-05-06 04:30 | 3.23185 | 91.78446 | 33932 ft | 502 kts | 310° |
| 2026-05-06 04:30 | 3.27725 | 91.73117 | 33932 ft | 502 kts | 310° |
| 2026-05-06 04:31 | 3.32239 | 91.67815 | 33932 ft | 501 kts | 310° |
| 2026-05-06 04:31 | 3.36793 | 91.62466 | 33933 ft | 502 kts | 310° |
| 2026-05-06 04:32 | 3.41295 | 91.57176 | 33936 ft | 501 kts | 310° |
| 2026-05-06 04:32 | 3.45818 | 91.51861 | 33941 ft | 502 kts | 310° |
| 2026-05-06 04:33 | 3.50363 | 91.46519 | 33948 ft | 503 kts | 310° |
| 2026-05-06 04:33 | 3.54903 | 91.41180 | 33953 ft | 502 kts | 310° |
| 2026-05-06 04:34 | 3.59441 | 91.35847 | 33954 ft | 502 kts | 310° |
| 2026-05-06 04:34 | 3.63969 | 91.30525 | 33952 ft | 502 kts | 310° |
| 2026-05-06 04:35 | 3.68510 | 91.25186 | 33952 ft | 501 kts | 310° |
| 2026-05-06 04:35 | 3.73024 | 91.19879 | 33951 ft | 503 kts | 311° |
| 2026-05-06 04:36 | 3.77568 | 91.14535 | 33952 ft | 502 kts | 310° |
| 2026-05-06 04:36 | 3.82110 | 91.09193 | 33953 ft | 503 kts | 310° |
| 2026-05-06 04:37 | 3.86637 | 91.03867 | 33952 ft | 502 kts | 310° |
| 2026-05-06 04:37 | 3.91197 | 90.98501 | 33953 ft | 502 kts | 310° |
| 2026-05-06 04:38 | 3.95714 | 90.93186 | 33953 ft | 503 kts | 310° |
| 2026-05-06 04:38 | 4.00274 | 90.87817 | 33956 ft | 504 kts | 311° |
| 2026-05-06 04:39 | 4.04801 | 90.82488 | 33954 ft | 503 kts | 311° |
| 2026-05-06 04:39 | 4.09326 | 90.77159 | 33952 ft | 503 kts | 311° |
| 2026-05-06 04:40 | 4.13882 | 90.71794 | 33945 ft | 504 kts | 310° |
| 2026-05-06 04:40 | 4.18425 | 90.66442 | 33932 ft | 503 kts | 310° |
| 2026-05-06 04:41 | 4.22938 | 90.61125 | 33933 ft | 503 kts | 310° |
| 2026-05-06 04:41 | 4.27472 | 90.55782 | 33934 ft | 504 kts | 310° |
| 2026-05-06 04:42 | 4.32021 | 90.50420 | 33934 ft | 504 kts | 311° |
| 2026-05-06 04:42 | 4.36572 | 90.45054 | 33936 ft | 504 kts | 311° |
| 2026-05-06 04:43 | 4.41090 | 90.39727 | 33933 ft | 503 kts | 310° |
| 2026-05-06 04:43 | 4.45632 | 90.34371 | 33933 ft | 503 kts | 310° |
| 2026-05-06 04:44 | 4.50169 | 90.29020 | 33932 ft | 504 kts | 310° |
| 2026-05-06 04:44 | 4.54723 | 90.23648 | 33931 ft | 505 kts | 310° |
| 2026-05-06 04:45 | 4.59269 | 90.18284 | 33933 ft | 505 kts | 310° |
| 2026-05-06 04:45 | 4.63862 | 90.12864 | 33932 ft | 504 kts | 310° |
| 2026-05-06 04:46 | 4.68384 | 90.07526 | 33931 ft | 504 kts | 310° |
| 2026-05-06 04:46 | 4.72934 | 90.02155 | 33930 ft | 504 kts | 310° |
| 2026-05-06 04:47 | 4.77486 | 89.96778 | 33932 ft | 504 kts | 310° |
| 2026-05-06 04:47 | 4.82017 | 89.91427 | 33933 ft | 505 kts | 310° |
| 2026-05-06 04:48 | 4.86557 | 89.86063 | 33933 ft | 505 kts | 310° |
| 2026-05-06 04:48 | 4.91120 | 89.80671 | 33933 ft | 505 kts | 310° |
| 2026-05-06 04:49 | 4.95671 | 89.75291 | 33933 ft | 504 kts | 310° |
| 2026-05-06 04:49 | 5.00196 | 89.69941 | 33935 ft | 504 kts | 310° |
| 2026-05-06 04:50 | 5.04760 | 89.64544 | 33942 ft | 504 kts | 310° |
| 2026-05-06 04:50 | 5.09300 | 89.59174 | 33951 ft | 504 kts | 310° |
| 2026-05-06 04:51 | 5.13829 | 89.53816 | 33954 ft | 505 kts | 310° |
| 2026-05-06 04:51 | 5.18378 | 89.48431 | 33954 ft | 506 kts | 310° |
| 2026-05-06 04:52 | 5.22943 | 89.43027 | 33954 ft | 505 kts | 310° |
| 2026-05-06 04:52 | 5.27471 | 89.37666 | 33954 ft | 504 kts | 310° |
| 2026-05-06 04:53 | 5.32026 | 89.32272 | 33944 ft | 504 kts | 310° |
| 2026-05-06 04:53 | 5.36581 | 89.26877 | 33946 ft | 504 kts | 310° |
| 2026-05-06 04:54 | 5.41120 | 89.21498 | 33943 ft | 504 kts | 310° |
| 2026-05-06 04:54 | 5.45634 | 89.16148 | 33940 ft | 505 kts | 310° |
| 2026-05-06 04:55 | 5.50161 | 89.10780 | 33937 ft | 503 kts | 310° |
| 2026-05-06 04:55 | 5.54714 | 89.05383 | 33931 ft | 504 kts | 310° |
| 2026-05-06 04:56 | 5.59238 | 89.00017 | 33933 ft | 504 kts | 310° |
| 2026-05-06 04:56 | 5.63752 | 88.94660 | 33932 ft | 503 kts | 310° |
| 2026-05-06 04:57 | 5.68288 | 88.89277 | 33932 ft | 505 kts | 310° |
| 2026-05-06 04:57 | 5.72815 | 88.83904 | 33932 ft | 503 kts | 310° |
| 2026-05-06 04:58 | 5.77342 | 88.78529 | 33934 ft | 506 kts | 310° |
| 2026-05-06 04:58 | 5.81910 | 88.73103 | 33934 ft | 506 kts | 311° |
| 2026-05-06 04:59 | 5.86481 | 88.67673 | 33933 ft | 504 kts | 310° |
| 2026-05-06 04:59 | 5.91007 | 88.62295 | 33933 ft | 506 kts | 311° |
| 2026-05-06 05:00 | 5.95587 | 88.56850 | 33934 ft | 504 kts | 310° |
| 2026-05-06 05:00 | 6.00101 | 88.51483 | 33935 ft | 505 kts | 310° |
| 2026-05-06 05:01 | 6.04669 | 88.46050 | 33934 ft | 506 kts | 311° |
| 2026-05-06 05:01 | 6.09204 | 88.40654 | 33938 ft | 506 kts | 311° |
| 2026-05-06 05:02 | 6.13735 | 88.35262 | 33934 ft | 504 kts | 311° |
| 2026-05-06 05:02 | 6.18268 | 88.29866 | 33929 ft | 505 kts | 311° |
| 2026-05-06 05:03 | 6.22816 | 88.24451 | 33932 ft | 506 kts | 310° |
| 2026-05-06 05:03 | 6.27341 | 88.19061 | 33932 ft | 506 kts | 311° |
| 2026-05-06 05:04 | 6.31851 | 88.13687 | 33931 ft | 504 kts | 311° |
| 2026-05-06 05:04 | 6.36417 | 88.08246 | 33931 ft | 504 kts | 310° |
| 2026-05-06 05:05 | 6.40936 | 88.02859 | 33932 ft | 504 kts | 311° |
| 2026-05-06 05:05 | 6.45396 | 87.97448 | 33934 ft | 502 kts | 309° |
| 2026-05-06 05:06 | 6.49708 | 87.91898 | 33933 ft | 504 kts | 308° |
| 2026-05-06 05:06 | 6.54015 | 87.86359 | 33934 ft | 503 kts | 309° |
| 2026-05-06 05:07 | 6.58314 | 87.80842 | 33934 ft | 503 kts | 309° |
| 2026-05-06 05:07 | 6.62644 | 87.75288 | 33935 ft | 504 kts | 309° |
| 2026-05-06 05:08 | 6.66967 | 87.69746 | 33935 ft | 503 kts | 309° |
| 2026-05-06 05:08 | 6.71295 | 87.64196 | 33936 ft | 503 kts | 309° |
| 2026-05-06 05:09 | 6.75598 | 87.58679 | 33936 ft | 503 kts | 309° |
| 2026-05-06 05:09 | 6.79913 | 87.53144 | 33936 ft | 503 kts | 309° |
| 2026-05-06 05:10 | 6.84255 | 87.47575 | 33937 ft | 503 kts | 309° |
| 2026-05-06 05:10 | 6.88572 | 87.42034 | 33935 ft | 505 kts | 309° |
| 2026-05-06 05:11 | 6.92917 | 87.36455 | 33935 ft | 503 kts | 309° |
| 2026-05-06 05:11 | 6.97229 | 87.30919 | 33931 ft | 505 kts | 309° |
| 2026-05-06 05:12 | 7.01579 | 87.25331 | 33931 ft | 504 kts | 308° |
| 2026-05-06 05:12 | 7.05897 | 87.19782 | 33931 ft | 506 kts | 308° |
| 2026-05-06 05:13 | 7.10241 | 87.14198 | 33931 ft | 505 kts | 308° |
| 2026-05-06 05:13 | 7.14600 | 87.08592 | 33930 ft | 507 kts | 308° |
| 2026-05-06 05:14 | 7.18930 | 87.03023 | 33931 ft | 506 kts | 309° |
| 2026-05-06 05:14 | 7.23282 | 86.97423 | 33932 ft | 507 kts | 309° |
| 2026-05-06 05:15 | 7.27644 | 86.91807 | 33932 ft | 506 kts | 308° |
| 2026-05-06 05:15 | 7.31956 | 86.86256 | 33933 ft | 506 kts | 308° |
| 2026-05-06 05:16 | 7.36343 | 86.80604 | 33931 ft | 507 kts | 308° |
| 2026-05-06 05:16 | 7.40682 | 86.75013 | 33932 ft | 507 kts | 308° |
| 2026-05-06 05:17 | 7.45050 | 86.69382 | 33932 ft | 507 kts | 308° |
| 2026-05-06 05:17 | 7.49412 | 86.63757 | 33932 ft | 506 kts | 308° |
| 2026-05-06 05:18 | 7.53753 | 86.58157 | 33933 ft | 506 kts | 308° |
| 2026-05-06 05:18 | 7.58044 | 86.52567 | 33934 ft | 507 kts | 308° |
| 2026-05-06 05:19 | 7.62320 | 86.46929 | 33931 ft | 507 kts | 308° |
| 2026-05-06 05:19 | 7.66613 | 86.41270 | 33929 ft | 507 kts | 308° |
| 2026-05-06 05:20 | 7.70890 | 86.35632 | 33930 ft | 508 kts | 308° |
| 2026-05-06 05:20 | 7.75184 | 86.29971 | 33927 ft | 507 kts | 308° |
| 2026-05-06 05:21 | 7.79510 | 86.24266 | 33922 ft | 507 kts | 308° |
| 2026-05-06 05:21 | 7.83802 | 86.18604 | 33913 ft | 508 kts | 308° |
| 2026-05-06 05:22 | 7.88091 | 86.12946 | 33916 ft | 508 kts | 308° |
| 2026-05-06 05:22 | 7.92365 | 86.07304 | 33913 ft | 507 kts | 308° |
| 2026-05-06 05:23 | 7.96650 | 86.01645 | 33915 ft | 509 kts | 307° |
| 2026-05-06 05:23 | 8.03108 | 85.93113 | 33921 ft | 509 kts | 307° |
| 2026-05-06 05:24 | 8.07392 | 85.87450 | 33932 ft | 509 kts | 308° |
| 2026-05-06 05:24 | 8.11678 | 85.81783 | 33935 ft | 508 kts | 307° |
| 2026-05-06 05:25 | 8.15949 | 85.76133 | 33932 ft | 508 kts | 307° |
| 2026-05-06 05:25 | 8.20246 | 85.70447 | 33931 ft | 506 kts | 307° |
| 2026-05-06 05:26 | 8.24545 | 85.64754 | 33935 ft | 507 kts | 307° |
| 2026-05-06 05:26 | 8.28829 | 85.59081 | 33933 ft | 507 kts | 307° |
| 2026-05-06 05:27 | 8.33081 | 85.53448 | 33934 ft | 507 kts | 307° |
| 2026-05-06 05:27 | 8.37367 | 85.47765 | 33932 ft | 507 kts | 307° |
| 2026-05-06 05:28 | 8.41657 | 85.42078 | 33932 ft | 507 kts | 307° |
| 2026-05-06 05:28 | 8.45908 | 85.36438 | 33935 ft | 507 kts | 307° |
| 2026-05-06 05:29 | 8.50187 | 85.30759 | 33931 ft | 505 kts | 307° |
| 2026-05-06 05:29 | 8.54433 | 85.25122 | 33931 ft | 505 kts | 307° |
| 2026-05-06 05:30 | 8.58669 | 85.19495 | 33931 ft | 503 kts | 307° |
| 2026-05-06 05:30 | 8.62924 | 85.13841 | 33931 ft | 504 kts | 307° |
| 2026-05-06 05:31 | 8.67174 | 85.08192 | 33930 ft | 504 kts | 307° |
| 2026-05-06 05:31 | 8.71432 | 85.02528 | 33934 ft | 504 kts | 307° |
| 2026-05-06 05:32 | 8.75673 | 84.96886 | 33933 ft | 503 kts | 307° |
| 2026-05-06 05:32 | 8.79888 | 84.91277 | 33932 ft | 503 kts | 307° |
| 2026-05-06 05:33 | 8.84135 | 84.85621 | 33932 ft | 503 kts | 307° |
| 2026-05-06 05:33 | 8.88395 | 84.79980 | 33925 ft | 503 kts | 310° |
| 2026-05-06 05:34 | 8.93122 | 84.74680 | 33934 ft | 504 kts | 313° |
| 2026-05-06 05:34 | 8.97859 | 84.69470 | 33934 ft | 502 kts | 313° |
| 2026-05-06 05:35 | 9.02612 | 84.64234 | 33933 ft | 503 kts | 313° |
| 2026-05-06 05:35 | 9.07326 | 84.59036 | 33935 ft | 504 kts | 313° |
| 2026-05-06 05:36 | 9.12057 | 84.53814 | 33932 ft | 503 kts | 313° |
| 2026-05-06 05:36 | 9.16786 | 84.48592 | 33936 ft | 503 kts | 313° |
| 2026-05-06 05:37 | 9.21553 | 84.43324 | 33941 ft | 502 kts | 313° |
| 2026-05-06 05:37 | 9.26251 | 84.38130 | 33944 ft | 503 kts | 313° |
| 2026-05-06 05:38 | 9.30989 | 84.32890 | 33942 ft | 503 kts | 313° |
| 2026-05-06 05:38 | 9.35731 | 84.27644 | 33942 ft | 501 kts | 312° |
| 2026-05-06 05:39 | 9.40459 | 84.22411 | 33947 ft | 502 kts | 312° |
| 2026-05-06 05:39 | 9.45158 | 84.17205 | 33944 ft | 501 kts | 312° |
| 2026-05-06 05:40 | 9.49881 | 84.11973 | 33942 ft | 501 kts | 312° |
| 2026-05-06 05:40 | 9.54549 | 84.06799 | 33939 ft | 501 kts | 312° |
| 2026-05-06 05:41 | 9.59250 | 84.01585 | 33935 ft | 500 kts | 312° |
| 2026-05-06 05:41 | 9.63966 | 83.96353 | 33933 ft | 499 kts | 312° |
| 2026-05-06 05:42 | 9.68639 | 83.91167 | 33934 ft | 498 kts | 312° |
| 2026-05-06 05:42 | 9.73320 | 83.85970 | 33935 ft | 499 kts | 312° |
| 2026-05-06 05:43 | 9.78014 | 83.80755 | 33933 ft | 499 kts | 312° |
| 2026-05-06 05:43 | 9.82678 | 83.75571 | 33934 ft | 499 kts | 312° |
| 2026-05-06 05:44 | 9.87355 | 83.70371 | 33933 ft | 499 kts | 312° |
| 2026-05-06 05:44 | 9.92047 | 83.65152 | 33933 ft | 499 kts | 312° |
| 2026-05-06 05:45 | 9.96728 | 83.59942 | 33934 ft | 498 kts | 312° |
| 2026-05-06 05:45 | 10.01395 | 83.54745 | 33933 ft | 497 kts | 312° |
| 2026-05-06 05:46 | 10.06053 | 83.49557 | 33933 ft | 498 kts | 312° |
| 2026-05-06 05:46 | 10.10703 | 83.44374 | 33932 ft | 498 kts | 312° |
| 2026-05-06 05:47 | 10.15392 | 83.39146 | 33931 ft | 499 kts | 312° |
| 2026-05-06 05:47 | 10.20102 | 83.33892 | 33930 ft | 499 kts | 312° |
| 2026-05-06 05:48 | 10.24751 | 83.28704 | 33930 ft | 498 kts | 311° |
| 2026-05-06 05:48 | 10.29410 | 83.23502 | 33930 ft | 498 kts | 311° |
| 2026-05-06 05:49 | 10.34082 | 83.18282 | 33931 ft | 498 kts | 311° |
| 2026-05-06 05:49 | 10.38753 | 83.13062 | 33930 ft | 498 kts | 311° |
| 2026-05-06 05:50 | 10.43395 | 83.07870 | 33931 ft | 499 kts | 311° |
| 2026-05-06 05:50 | 10.48092 | 83.02617 | 33930 ft | 499 kts | 311° |
| 2026-05-06 05:51 | 10.52737 | 82.97418 | 33930 ft | 498 kts | 311° |
| 2026-05-06 05:51 | 10.57423 | 82.92172 | 33931 ft | 498 kts | 311° |
| 2026-05-06 05:52 | 10.62062 | 82.86974 | 33929 ft | 498 kts | 311° |
| 2026-05-06 05:52 | 10.66718 | 82.81726 | 33932 ft | 498 kts | 311° |
| 2026-05-06 05:53 | 10.71364 | 82.76463 | 33930 ft | 499 kts | 311° |
| 2026-05-06 05:53 | 10.75998 | 82.71210 | 33937 ft | 499 kts | 311° |
| 2026-05-06 05:54 | 10.80631 | 82.65958 | 33947 ft | 499 kts | 311° |
| 2026-05-06 05:54 | 10.85264 | 82.60703 | 33952 ft | 499 kts | 311° |
| 2026-05-06 05:55 | 10.89918 | 82.55423 | 33954 ft | 498 kts | 311° |
| 2026-05-06 05:55 | 10.94540 | 82.50176 | 33953 ft | 499 kts | 311° |
| 2026-05-06 05:56 | 10.99200 | 82.44883 | 33953 ft | 498 kts | 311° |
| 2026-05-06 05:56 | 11.03809 | 82.39646 | 33953 ft | 499 kts | 311° |
| 2026-05-06 05:57 | 11.08450 | 82.34370 | 33954 ft | 499 kts | 311° |
| 2026-05-06 05:57 | 11.13102 | 82.29078 | 33946 ft | 498 kts | 311° |
| 2026-05-06 05:58 | 11.17730 | 82.23811 | 33939 ft | 499 kts | 311° |
| 2026-05-06 05:58 | 11.22327 | 82.18576 | 33937 ft | 498 kts | 311° |
| 2026-05-06 05:59 | 11.26967 | 82.13290 | 33935 ft | 498 kts | 311° |
| 2026-05-06 05:59 | 11.31595 | 82.08015 | 33844 ft | 498 kts | 311° |
| 2026-05-06 06:00 | 11.36235 | 82.02724 | 33854 ft | 500 kts | 311° |
| 2026-05-06 06:00 | 11.38547 | 82.00086 | 34122 ft | 505 kts | 311° |
| 2026-05-06 06:00 | 11.40888 | 81.97414 | 34895 ft | 500 kts | 311° |
| 2026-05-06 06:01 | 11.43179 | 81.94800 | 35818 ft | 492 kts | 311° |
| 2026-05-06 06:01 | 11.45448 | 81.92210 | 36476 ft | 488 kts | 311° |
| 2026-05-06 06:01 | 11.47716 | 81.89619 | 36779 ft | 490 kts | 311° |
| 2026-05-06 06:01 | 11.49999 | 81.87011 | 37004 ft | 493 kts | 311° |
| 2026-05-06 06:02 | 11.52293 | 81.84389 | 37346 ft | 493 kts | 311° |
| 2026-05-06 06:02 | 11.54564 | 81.81794 | 37794 ft | 491 kts | 311° |
| 2026-05-06 06:02 | 11.59122 | 81.76582 | 37854 ft | 492 kts | 311° |
| 2026-05-06 06:03 | 11.63694 | 81.71352 | 37866 ft | 491 kts | 311° |
| 2026-05-06 06:03 | 11.68221 | 81.66169 | 37869 ft | 491 kts | 311° |
| 2026-05-06 06:04 | 11.72783 | 81.60945 | 37869 ft | 491 kts | 311° |
| 2026-05-06 06:04 | 11.77326 | 81.55739 | 37869 ft | 490 kts | 311° |
| 2026-05-06 06:05 | 11.81859 | 81.50542 | 37870 ft | 492 kts | 311° |
| 2026-05-06 06:05 | 11.86422 | 81.45308 | 37871 ft | 491 kts | 311° |
| 2026-05-06 06:06 | 11.90997 | 81.40057 | 37871 ft | 490 kts | 311° |
| 2026-05-06 06:06 | 11.95505 | 81.34881 | 37871 ft | 491 kts | 311° |
| 2026-05-06 06:07 | 12.00066 | 81.29640 | 37868 ft | 490 kts | 311° |
| 2026-05-06 06:07 | 12.04618 | 81.24406 | 37862 ft | 491 kts | 311° |
| 2026-05-06 06:08 | 12.09137 | 81.19208 | 37852 ft | 491 kts | 311° |
| 2026-05-06 06:08 | 12.13698 | 81.13959 | 37846 ft | 491 kts | 311° |
| 2026-05-06 06:09 | 12.18241 | 81.08727 | 37847 ft | 491 kts | 311° |
| 2026-05-06 06:09 | 12.22776 | 81.03502 | 37846 ft | 489 kts | 311° |
| 2026-05-06 06:10 | 12.27305 | 80.98281 | 37847 ft | 489 kts | 311° |
| 2026-05-06 06:10 | 12.31828 | 80.93064 | 37846 ft | 490 kts | 311° |
| 2026-05-06 06:11 | 12.36339 | 80.87857 | 37845 ft | 490 kts | 311° |
| 2026-05-06 06:11 | 12.40871 | 80.82624 | 37844 ft | 489 kts | 311° |
| 2026-05-06 06:12 | 12.45394 | 80.77397 | 37841 ft | 488 kts | 311° |
| 2026-05-06 06:12 | 12.49914 | 80.72173 | 37840 ft | 488 kts | 311° |
| 2026-05-06 06:13 | 12.54424 | 80.66955 | 37840 ft | 488 kts | 311° |
| 2026-05-06 06:13 | 12.58920 | 80.61752 | 37840 ft | 487 kts | 311° |
| 2026-05-06 06:14 | 12.63441 | 80.56516 | 37839 ft | 487 kts | 311° |
| 2026-05-06 06:14 | 12.67928 | 80.51316 | 37841 ft | 487 kts | 311° |
| 2026-05-06 06:15 | 12.72422 | 80.46105 | 37837 ft | 486 kts | 311° |
| 2026-05-06 06:15 | 12.76886 | 80.40927 | 37841 ft | 485 kts | 311° |
| 2026-05-06 06:16 | 12.81356 | 80.35739 | 37847 ft | 485 kts | 311° |
| 2026-05-06 06:16 | 12.85800 | 80.30577 | 37840 ft | 485 kts | 311° |
| 2026-05-06 06:17 | 12.90273 | 80.25379 | 37837 ft | 485 kts | 311° |
| 2026-05-06 06:17 | 12.94734 | 80.20191 | 37832 ft | 485 kts | 311° |
| 2026-05-06 06:18 | 12.98995 | 80.14846 | 37825 ft | 483 kts | 302° |
| 2026-05-06 06:18 | 13.02290 | 80.08870 | 37830 ft | 484 kts | 298° |
| 2026-05-06 06:19 | 13.05527 | 80.02807 | 37823 ft | 483 kts | 298° |
| 2026-05-06 06:19 | 13.08742 | 79.96774 | 37833 ft | 483 kts | 298° |
| 2026-05-06 06:20 | 13.11966 | 79.90719 | 37831 ft | 483 kts | 298° |
| 2026-05-06 06:20 | 13.15163 | 79.84708 | 37836 ft | 483 kts | 298° |
| 2026-05-06 06:21 | 13.18385 | 79.78646 | 37847 ft | 481 kts | 298° |
| 2026-05-06 06:21 | 13.21579 | 79.72631 | 37849 ft | 482 kts | 298° |
| 2026-05-06 06:22 | 13.24778 | 79.66603 | 37855 ft | 482 kts | 299° |
| 2026-05-06 06:22 | 13.27987 | 79.60552 | 37860 ft | 483 kts | 298° |
| 2026-05-06 06:23 | 13.31209 | 79.54472 | 37858 ft | 483 kts | 299° |
| 2026-05-06 06:23 | 13.34404 | 79.48438 | 37859 ft | 484 kts | 298° |
| 2026-05-06 06:24 | 13.37628 | 79.42345 | 37870 ft | 486 kts | 298° |
| 2026-05-06 06:24 | 13.40851 | 79.36250 | 37881 ft | 485 kts | 298° |
| 2026-05-06 06:25 | 13.44058 | 79.30180 | 37890 ft | 482 kts | 298° |
| 2026-05-06 06:26 | 13.48825 | 79.21152 | 37912 ft | 477 kts | 298° |
| 2026-05-06 06:26 | 13.51993 | 79.15146 | 37924 ft | 478 kts | 298° |
| 2026-05-06 06:27 | 13.55158 | 79.09141 | 37932 ft | 477 kts | 298° |
| 2026-05-06 06:27 | 13.58315 | 79.03146 | 37934 ft | 478 kts | 298° |
| 2026-05-06 06:28 | 13.61496 | 78.97103 | 37941 ft | 479 kts | 297° |
| 2026-05-06 06:28 | 13.64659 | 78.91089 | 37944 ft | 479 kts | 298° |
| 2026-05-06 06:29 | 13.67837 | 78.85041 | 37948 ft | 477 kts | 298° |
| 2026-05-06 06:29 | 13.70975 | 78.79066 | 37946 ft | 477 kts | 298° |
| 2026-05-06 06:30 | 13.74156 | 78.73005 | 37946 ft | 478 kts | 297° |
| 2026-05-06 06:30 | 13.77303 | 78.67004 | 37949 ft | 479 kts | 297° |
| 2026-05-06 06:31 | 13.80475 | 78.60951 | 37947 ft | 478 kts | 297° |
| 2026-05-06 06:31 | 13.83646 | 78.54894 | 37948 ft | 478 kts | 297° |
| 2026-05-06 06:32 | 13.86790 | 78.48887 | 37950 ft | 479 kts | 297° |
| 2026-05-06 06:32 | 13.89988 | 78.42770 | 37961 ft | 482 kts | 297° |
| 2026-05-06 06:33 | 13.92621 | 78.37730 | 37973 ft | 481 kts | 297° |